sensor_id;sensor_type;location;lat;lon;timestamp;pressure;altitude;pressure_sealevel;temperature;humidity
57847;BME280;43675;50.030;21.952;2023-04-15T00:00:40;97693.94;;;10.49;75.71
57847;BME280;43675;50.030;21.952;2023-04-15T00:03:14;97693.05;;;10.48;75.49
57847;BME280;43675;50.030;21.952;2023-04-15T00:05:40;97695.98;;;10.45;75.42
57847;BME280;43675;50.030;21.952;2023-04-15T00:08:07;97702.08;;;10.43;75.23
57847;BME280;43675;50.030;21.952;2023-04-15T00:10:33;97699.13;;;10.37;74.95
57847;BME280;43675;50.030;21.952;2023-04-15T00:13:00;97696.33;;;10.32;74.84
57847;BME280;43675;50.030;21.952;2023-04-15T00:15:27;97686.58;;;10.25;74.72
57847;BME280;43675;50.030;21.952;2023-04-15T00:17:53;97684.68;;;10.19;74.83
57847;BME280;43675;50.030;21.952;2023-04-15T00:20:20;97686.87;;;10.14;74.63
57847;BME280;43675;50.030;21.952;2023-04-15T00:22:46;97691.59;;;10.08;74.65
57847;BME280;43675;50.030;21.952;2023-04-15T00:25:13;97697.19;;;10.02;74.56
57847;BME280;43675;50.030;21.952;2023-04-15T00:27:39;97698.77;;;9.96;74.53
57847;BME280;43675;50.030;21.952;2023-04-15T00:30:07;97704.39;;;9.90;74.53
57847;BME280;43675;50.030;21.952;2023-04-15T00:32:33;97708.89;;;9.86;74.53
57847;BME280;43675;50.030;21.952;2023-04-15T00:35:00;97708.27;;;9.82;74.51
57847;BME280;43675;50.030;21.952;2023-04-15T00:37:26;97707.02;;;9.77;74.39
57847;BME280;43675;50.030;21.952;2023-04-15T00:39:53;97704.61;;;9.72;74.28
57847;BME280;43675;50.030;21.952;2023-04-15T00:42:20;97703.33;;;9.68;74.26
57847;BME280;43675;50.030;21.952;2023-04-15T00:44:47;97704.59;;;9.63;74.31
57847;BME280;43675;50.030;21.952;2023-04-15T00:47:14;97700.89;;;9.58;74.45
57847;BME280;43675;50.030;21.952;2023-04-15T00:49:41;97699.92;;;9.53;74.50
57847;BME280;43675;50.030;21.952;2023-04-15T00:52:08;97700.80;;;9.50;74.32
57847;BME280;43675;50.030;21.952;2023-04-15T00:54:34;97699.04;;;9.45;74.46
57847;BME280;43675;50.030;21.952;2023-04-15T00:57:01;97701.64;;;9.41;74.56
57847;BME280;43675;50.030;21.952;2023-04-15T00:59:30;97703.95;;;9.36;74.71
57847;BME280;43675;50.030;21.952;2023-04-15T01:01:58;97704.17;;;9.34;74.63
57847;BME280;43675;50.030;21.952;2023-04-15T01:04:25;97713.47;;;9.31;74.60
57847;BME280;43675;50.030;21.952;2023-04-15T01:06:52;97711.91;;;9.29;74.77
57847;BME280;43675;50.030;21.952;2023-04-15T01:09:18;97713.10;;;9.25;74.96
57847;BME280;43675;50.030;21.952;2023-04-15T01:11:45;97710.13;;;9.23;74.83
57847;BME280;43675;50.030;21.952;2023-04-15T01:14:12;97702.63;;;9.20;75.02
57847;BME280;43675;50.030;21.952;2023-04-15T01:16:39;97694.77;;;9.18;75.08
57847;BME280;43675;50.030;21.952;2023-04-15T01:19:07;97690.67;;;9.17;75.12
57847;BME280;43675;50.030;21.952;2023-04-15T01:21:36;97692.83;;;9.18;75.02
57847;BME280;43675;50.030;21.952;2023-04-15T01:24:10;97696.21;;;9.20;74.83
57847;BME280;43675;50.030;21.952;2023-04-15T01:26:37;97695.98;;;9.20;74.80
57847;BME280;43675;50.030;21.952;2023-04-15T01:29:05;97696.98;;;9.19;74.91
57847;BME280;43675;50.030;21.952;2023-04-15T01:31:31;97694.81;;;9.18;74.87
57847;BME280;43675;50.030;21.952;2023-04-15T01:33:59;97696.70;;;9.16;74.79
57847;BME280;43675;50.030;21.952;2023-04-15T01:36:26;97694.56;;;9.15;74.88
57847;BME280;43675;50.030;21.952;2023-04-15T01:38:53;97697.20;;;9.13;75.07
57847;BME280;43675;50.030;21.952;2023-04-15T01:41:27;97695.80;;;9.11;75.09
57847;BME280;43675;50.030;21.952;2023-04-15T01:43:54;97693.67;;;9.11;74.74
57847;BME280;43675;50.030;21.952;2023-04-15T01:46:21;97698.48;;;9.10;74.96
57847;BME280;43675;50.030;21.952;2023-04-15T01:48:48;97698.03;;;9.10;74.79
57847;BME280;43675;50.030;21.952;2023-04-15T01:51:15;97703.06;;;9.08;74.95
57847;BME280;43675;50.030;21.952;2023-04-15T01:53:42;97710.45;;;9.08;74.87
57847;BME280;43675;50.030;21.952;2023-04-15T01:56:08;97715.47;;;9.05;74.92
57847;BME280;43675;50.030;21.952;2023-04-15T01:58:35;97711.95;;;9.03;74.98
57847;BME280;43675;50.030;21.952;2023-04-15T02:01:02;97714.81;;;9.02;74.94
57847;BME280;43675;50.030;21.952;2023-04-15T02:03:29;97719.27;;;9.01;74.94
57847;BME280;43675;50.030;21.952;2023-04-15T02:05:55;97718.41;;;9.01;74.88
57847;BME280;43675;50.030;21.952;2023-04-15T02:08:22;97712.89;;;9.01;74.93
57847;BME280;43675;50.030;21.952;2023-04-15T02:10:48;97711.03;;;9.01;74.83
57847;BME280;43675;50.030;21.952;2023-04-15T02:13:15;97711.86;;;9.00;74.91
57847;BME280;43675;50.030;21.952;2023-04-15T02:15:49;97715.42;;;8.99;74.82
57847;BME280;43675;50.030;21.952;2023-04-15T02:18:16;97716.70;;;9.00;74.95
57847;BME280;43675;50.030;21.952;2023-04-15T02:20:42;97710.45;;;9.04;74.86
57847;BME280;43675;50.030;21.952;2023-04-15T02:23:09;97710.50;;;9.01;74.65
57847;BME280;43675;50.030;21.952;2023-04-15T02:25:36;97702.72;;;8.98;74.64
57847;BME280;43675;50.030;21.952;2023-04-15T02:28:04;97698.42;;;8.96;74.58
57847;BME280;43675;50.030;21.952;2023-04-15T02:30:32;97694.92;;;8.95;74.80
57847;BME280;43675;50.030;21.952;2023-04-15T02:33:01;97688.02;;;8.95;74.78
57847;BME280;43675;50.030;21.952;2023-04-15T02:35:28;97696.05;;;8.95;74.63
57847;BME280;43675;50.030;21.952;2023-04-15T02:37:55;97694.45;;;9.00;74.61
57847;BME280;43675;50.030;21.952;2023-04-15T02:40:21;97697.84;;;8.96;74.78
57847;BME280;43675;50.030;21.952;2023-04-15T02:42:48;97698.88;;;8.93;74.58
57847;BME280;43675;50.030;21.952;2023-04-15T02:45:14;97698.86;;;8.88;74.62
57847;BME280;43675;50.030;21.952;2023-04-15T02:47:41;97697.63;;;8.86;74.70
57847;BME280;43675;50.030;21.952;2023-04-15T02:50:10;97692.45;;;8.83;74.70
57847;BME280;43675;50.030;21.952;2023-04-15T02:52:39;97685.27;;;8.80;74.74
57847;BME280;43675;50.030;21.952;2023-04-15T02:55:06;97686.27;;;8.77;74.82
57847;BME280;43675;50.030;21.952;2023-04-15T02:57:33;97692.71;;;8.77;74.54
57847;BME280;43675;50.030;21.952;2023-04-15T02:59:59;97697.31;;;8.75;74.67
57847;BME280;43675;50.030;21.952;2023-04-15T03:02:26;97708.04;;;8.74;74.58
57847;BME280;43675;50.030;21.952;2023-04-15T03:04:53;97712.29;;;8.73;74.55
57847;BME280;43675;50.030;21.952;2023-04-15T03:07:20;97714.50;;;8.71;74.42
57847;BME280;43675;50.030;21.952;2023-04-15T03:09:46;97717.61;;;8.69;74.48
57847;BME280;43675;50.030;21.952;2023-04-15T03:12:13;97721.50;;;8.67;74.34
57847;BME280;43675;50.030;21.952;2023-04-15T03:14:40;97725.64;;;8.66;74.20
57847;BME280;43675;50.030;21.952;2023-04-15T03:17:06;97726.23;;;8.64;74.16
57847;BME280;43675;50.030;21.952;2023-04-15T03:19:33;97724.68;;;8.63;74.07
57847;BME280;43675;50.030;21.952;2023-04-15T03:21:59;97721.52;;;8.60;74.19
57847;BME280;43675;50.030;21.952;2023-04-15T03:24:26;97724.41;;;8.58;74.10
57847;BME280;43675;50.030;21.952;2023-04-15T03:26:52;97726.20;;;8.57;74.10
57847;BME280;43675;50.030;21.952;2023-04-15T03:29:19;97732.52;;;8.55;74.04
57847;BME280;43675;50.030;21.952;2023-04-15T03:31:45;97739.64;;;8.54;74.08
57847;BME280;43675;50.030;21.952;2023-04-15T03:34:12;97741.84;;;8.52;74.06
57847;BME280;43675;50.030;21.952;2023-04-15T03:36:38;97743.67;;;8.51;74.11
57847;BME280;43675;50.030;21.952;2023-04-15T03:39:05;97748.00;;;8.51;74.15
57847;BME280;43675;50.030;21.952;2023-04-15T03:41:31;97756.36;;;8.49;74.12
57847;BME280;43675;50.030;21.952;2023-04-15T03:43:58;97762.48;;;8.49;74.15
57847;BME280;43675;50.030;21.952;2023-04-15T03:46:24;97762.45;;;8.48;74.15
57847;BME280;43675;50.030;21.952;2023-04-15T03:48:51;97767.95;;;8.47;74.22
57847;BME280;43675;50.030;21.952;2023-04-15T03:51:17;97765.05;;;8.46;74.08
57847;BME280;43675;50.030;21.952;2023-04-15T03:53:44;97765.86;;;8.45;74.19
57847;BME280;43675;50.030;21.952;2023-04-15T03:56:10;97766.77;;;8.45;74.06
57847;BME280;43675;50.030;21.952;2023-04-15T03:58:37;97759.48;;;8.45;74.31
57847;BME280;43675;50.030;21.952;2023-04-15T04:01:03;97753.16;;;8.46;74.13
57847;BME280;43675;50.030;21.952;2023-04-15T04:03:30;97753.87;;;8.47;74.12
57847;BME280;43675;50.030;21.952;2023-04-15T04:05:56;97763.73;;;8.49;74.06
57847;BME280;43675;50.030;21.952;2023-04-15T04:08:23;97767.41;;;8.54;73.91
57847;BME280;43675;50.030;21.952;2023-04-15T04:10:49;97761.48;;;8.54;74.08
57847;BME280;43675;50.030;21.952;2023-04-15T04:13:16;97749.73;;;8.55;73.90
57847;BME280;43675;50.030;21.952;2023-04-15T04:15:43;97738.48;;;8.55;73.80
57847;BME280;43675;50.030;21.952;2023-04-15T04:18:09;97736.26;;;8.55;73.97
57847;BME280;43675;50.030;21.952;2023-04-15T04:20:36;97742.77;;;8.55;73.71
57847;BME280;43675;50.030;21.952;2023-04-15T04:23:02;97746.93;;;8.53;73.76
57847;BME280;43675;50.030;21.952;2023-04-15T04:25:29;97756.45;;;8.52;73.63
57847;BME280;43675;50.030;21.952;2023-04-15T04:27:55;97765.97;;;8.50;73.72
57847;BME280;43675;50.030;21.952;2023-04-15T04:30:22;97772.44;;;8.50;73.62
57847;BME280;43675;50.030;21.952;2023-04-15T04:32:48;97786.02;;;8.49;73.76
57847;BME280;43675;50.030;21.952;2023-04-15T04:35:15;97788.12;;;8.48;73.60
57847;BME280;43675;50.030;21.952;2023-04-15T04:37:42;97782.06;;;8.47;73.82
57847;BME280;43675;50.030;21.952;2023-04-15T04:40:08;97781.97;;;8.47;73.64
57847;BME280;43675;50.030;21.952;2023-04-15T04:42:35;97772.52;;;8.48;73.50
57847;BME280;43675;50.030;21.952;2023-04-15T04:45:02;97776.90;;;8.52;73.67
57847;BME280;43675;50.030;21.952;2023-04-15T04:47:28;97780.84;;;8.52;73.67
57847;BME280;43675;50.030;21.952;2023-04-15T04:49:55;97781.87;;;8.53;73.72
57847;BME280;43675;50.030;21.952;2023-04-15T04:52:21;97785.66;;;8.55;73.76
57847;BME280;43675;50.030;21.952;2023-04-15T04:54:48;97785.23;;;8.59;73.61
57847;BME280;43675;50.030;21.952;2023-04-15T04:57:14;97782.64;;;8.65;73.59
57847;BME280;43675;50.030;21.952;2023-04-15T04:59:41;97783.93;;;8.71;73.43
57847;BME280;43675;50.030;21.952;2023-04-15T05:02:07;97787.35;;;8.76;73.36
57847;BME280;43675;50.030;21.952;2023-04-15T05:04:34;97788.52;;;8.82;72.94
57847;BME280;43675;50.030;21.952;2023-04-15T05:07:01;97787.55;;;8.87;72.81
57847;BME280;43675;50.030;21.952;2023-04-15T05:09:27;97797.48;;;8.93;72.91
57847;BME280;43675;50.030;21.952;2023-04-15T05:11:54;97802.13;;;8.99;72.77
57847;BME280;43675;50.030;21.952;2023-04-15T05:14:21;97807.21;;;9.05;72.64
57847;BME280;43675;50.030;21.952;2023-04-15T05:16:47;97812.64;;;9.12;72.57
57847;BME280;43675;50.030;21.952;2023-04-15T05:19:14;97816.07;;;9.20;72.25
57847;BME280;43675;50.030;21.952;2023-04-15T05:21:40;97818.45;;;9.26;72.13
57847;BME280;43675;50.030;21.952;2023-04-15T05:24:07;97822.98;;;9.33;71.85
57847;BME280;43675;50.030;21.952;2023-04-15T05:26:33;97830.13;;;9.40;71.89
57847;BME280;43675;50.030;21.952;2023-04-15T05:29:00;97825.55;;;9.49;71.69
57847;BME280;43675;50.030;21.952;2023-04-15T05:31:26;97813.37;;;9.59;71.49
57847;BME280;43675;50.030;21.952;2023-04-15T05:33:53;97804.17;;;9.68;71.23
57847;BME280;43675;50.030;21.952;2023-04-15T05:36:20;97802.19;;;9.79;70.84
57847;BME280;43675;50.030;21.952;2023-04-15T05:38:46;97801.67;;;9.88;70.77
57847;BME280;43675;50.030;21.952;2023-04-15T05:41:13;97805.31;;;9.97;70.40
57847;BME280;43675;50.030;21.952;2023-04-15T05:43:40;97808.72;;;10.05;70.25
57847;BME280;43675;50.030;21.952;2023-04-15T05:46:06;97813.58;;;10.11;69.86
57847;BME280;43675;50.030;21.952;2023-04-15T05:48:33;97814.73;;;10.15;69.84
57847;BME280;43675;50.030;21.952;2023-04-15T05:51:00;97814.91;;;10.21;69.67
57847;BME280;43675;50.030;21.952;2023-04-15T05:53:26;97816.46;;;10.27;69.64
57847;BME280;43675;50.030;21.952;2023-04-15T05:55:53;97821.91;;;10.33;69.34
57847;BME280;43675;50.030;21.952;2023-04-15T05:58:19;97823.52;;;10.40;69.07
57847;BME280;43675;50.030;21.952;2023-04-15T06:00:46;97823.05;;;10.51;68.89
57847;BME280;43675;50.030;21.952;2023-04-15T06:03:12;97822.96;;;10.63;68.71
57847;BME280;43675;50.030;21.952;2023-04-15T06:05:39;97828.13;;;10.79;68.44
57847;BME280;43675;50.030;21.952;2023-04-15T06:08:05;97827.86;;;10.94;68.09
57847;BME280;43675;50.030;21.952;2023-04-15T06:10:34;97825.48;;;11.12;67.70
57847;BME280;43675;50.030;21.952;2023-04-15T06:13:02;97824.01;;;11.24;67.32
57847;BME280;43675;50.030;21.952;2023-04-15T06:15:29;97819.56;;;11.36;67.12
57847;BME280;43675;50.030;21.952;2023-04-15T06:17:56;97818.55;;;11.51;66.73
57847;BME280;43675;50.030;21.952;2023-04-15T06:20:22;97818.11;;;11.63;66.62
57847;BME280;43675;50.030;21.952;2023-04-15T06:22:49;97816.20;;;11.71;66.21
57847;BME280;43675;50.030;21.952;2023-04-15T06:25:15;97811.29;;;11.79;66.15
57847;BME280;43675;50.030;21.952;2023-04-15T06:27:42;97809.70;;;11.88;65.99
57847;BME280;43675;50.030;21.952;2023-04-15T06:30:09;97811.48;;;12.00;65.73
57847;BME280;43675;50.030;21.952;2023-04-15T06:32:35;97809.63;;;12.12;65.40
57847;BME280;43675;50.030;21.952;2023-04-15T06:35:02;97809.87;;;12.24;65.21
57847;BME280;43675;50.030;21.952;2023-04-15T06:37:29;97808.85;;;12.35;64.82
57847;BME280;43675;50.030;21.952;2023-04-15T06:39:55;97812.02;;;12.42;64.48
57847;BME280;43675;50.030;21.952;2023-04-15T06:42:22;97811.48;;;12.46;64.14
57847;BME280;43675;50.030;21.952;2023-04-15T06:44:48;97809.59;;;12.49;63.87
57847;BME280;43675;50.030;21.952;2023-04-15T06:47:15;97812.21;;;12.52;63.45
57847;BME280;43675;50.030;21.952;2023-04-15T06:49:41;97813.39;;;12.55;63.17
57847;BME280;43675;50.030;21.952;2023-04-15T06:52:09;97822.38;;;12.59;62.92
57847;BME280;43675;50.030;21.952;2023-04-15T06:54:36;97825.27;;;12.61;62.71
57847;BME280;43675;50.030;21.952;2023-04-15T06:57:03;97825.60;;;12.62;62.54
57847;BME280;43675;50.030;21.952;2023-04-15T06:59:29;97825.75;;;12.61;62.40
57847;BME280;43675;50.030;21.952;2023-04-15T07:01:56;97824.08;;;12.60;62.26
57847;BME280;43675;50.030;21.952;2023-04-15T07:04:22;97827.70;;;12.62;62.10
57847;BME280;43675;50.030;21.952;2023-04-15T07:06:49;97831.61;;;12.65;61.98
57847;BME280;43675;50.030;21.952;2023-04-15T07:09:15;97835.92;;;12.69;61.94
57847;BME280;43675;50.030;21.952;2023-04-15T07:11:42;97839.56;;;12.75;61.75
57847;BME280;43675;50.030;21.952;2023-04-15T07:14:08;97838.71;;;12.84;61.58
57847;BME280;43675;50.030;21.952;2023-04-15T07:16:35;97839.68;;;12.92;61.39
57847;BME280;43675;50.030;21.952;2023-04-15T07:19:01;97841.09;;;13.01;61.24
57847;BME280;43675;50.030;21.952;2023-04-15T07:21:28;97836.87;;;13.10;61.01
57847;BME280;43675;50.030;21.952;2023-04-15T07:23:55;97835.74;;;13.23;60.69
57847;BME280;43675;50.030;21.952;2023-04-15T07:26:21;97840.63;;;13.39;60.30
57847;BME280;43675;50.030;21.952;2023-04-15T07:28:48;97839.77;;;13.51;59.92
57847;BME280;43675;50.030;21.952;2023-04-15T07:31:14;97840.02;;;13.64;59.73
57847;BME280;43675;50.030;21.952;2023-04-15T07:33:41;97842.90;;;13.76;59.37
57847;BME280;43675;50.030;21.952;2023-04-15T07:36:07;97841.70;;;13.86;59.23
57847;BME280;43675;50.030;21.952;2023-04-15T07:38:34;97839.74;;;13.96;59.05
57847;BME280;43675;50.030;21.952;2023-04-15T07:41:00;97843.96;;;14.10;58.75
57847;BME280;43675;50.030;21.952;2023-04-15T07:43:27;97838.80;;;14.26;58.54
57847;BME280;43675;50.030;21.952;2023-04-15T07:45:54;97847.84;;;14.37;58.15
57847;BME280;43675;50.030;21.952;2023-04-15T07:48:20;97851.95;;;14.46;57.95
57847;BME280;43675;50.030;21.952;2023-04-15T07:50:47;97855.29;;;14.53;57.82
57847;BME280;43675;50.030;21.952;2023-04-15T07:53:14;97850.65;;;14.60;57.67
57847;BME280;43675;50.030;21.952;2023-04-15T07:55:40;97855.46;;;14.63;57.18
57847;BME280;43675;50.030;21.952;2023-04-15T07:58:07;97855.06;;;14.60;56.93
57847;BME280;43675;50.030;21.952;2023-04-15T08:00:33;97856.91;;;14.52;56.54
57847;BME280;43675;50.030;21.952;2023-04-15T08:03:00;97862.02;;;14.44;56.50
57847;BME280;43675;50.030;21.952;2023-04-15T08:05:26;97867.95;;;14.32;56.48
57847;BME280;43675;50.030;21.952;2023-04-15T08:07:53;97866.77;;;14.20;56.58
57847;BME280;43675;50.030;21.952;2023-04-15T08:10:19;97864.92;;;14.12;56.67
57847;BME280;43675;50.030;21.952;2023-04-15T08:12:46;97866.38;;;14.07;56.89
57847;BME280;43675;50.030;21.952;2023-04-15T08:15:12;97864.31;;;14.04;56.86
57847;BME280;43675;50.030;21.952;2023-04-15T08:17:39;97865.20;;;14.05;56.84
57847;BME280;43675;50.030;21.952;2023-04-15T08:20:06;97865.83;;;14.11;56.89
57847;BME280;43675;50.030;21.952;2023-04-15T08:22:33;97866.92;;;14.25;56.69
57847;BME280;43675;50.030;21.952;2023-04-15T08:24:59;97865.02;;;14.41;56.44
57847;BME280;43675;50.030;21.952;2023-04-15T08:27:26;97867.19;;;14.56;56.23
57847;BME280;43675;50.030;21.952;2023-04-15T08:29:52;97869.50;;;14.69;55.88
57847;BME280;43675;50.030;21.952;2023-04-15T08:32:19;97873.59;;;14.83;55.61
57847;BME280;43675;50.030;21.952;2023-04-15T08:34:45;97873.65;;;14.94;55.31
57847;BME280;43675;50.030;21.952;2023-04-15T08:37:12;97871.35;;;15.10;55.10
57847;BME280;43675;50.030;21.952;2023-04-15T08:39:38;97870.85;;;15.30;55.03
57847;BME280;43675;50.030;21.952;2023-04-15T08:42:15;97872.26;;;15.51;54.63
57847;BME280;43675;50.030;21.952;2023-04-15T08:44:42;97864.17;;;15.77;54.18
57847;BME280;43675;50.030;21.952;2023-04-15T08:47:12;97860.86;;;16.05;53.58
57847;BME280;43675;50.030;21.952;2023-04-15T08:49:40;97858.81;;;16.34;53.11
57847;BME280;43675;50.030;21.952;2023-04-15T08:52:08;97859.58;;;16.63;52.51
57847;BME280;43675;50.030;21.952;2023-04-15T08:54:35;97862.47;;;16.87;52.02
57847;BME280;43675;50.030;21.952;2023-04-15T08:57:02;97861.17;;;17.07;51.50
57847;BME280;43675;50.030;21.952;2023-04-15T08:59:29;97860.64;;;17.22;51.06
57847;BME280;43675;50.030;21.952;2023-04-15T09:01:56;97864.73;;;17.33;50.69
57847;BME280;43675;50.030;21.952;2023-04-15T09:04:23;97863.70;;;17.53;50.16
57847;BME280;43675;50.030;21.952;2023-04-15T09:06:49;97859.32;;;17.70;49.67
57847;BME280;43675;50.030;21.952;2023-04-15T09:09:16;97864.98;;;17.74;48.93
57847;BME280;43675;50.030;21.952;2023-04-15T09:11:42;97865.73;;;17.65;48.97
57847;BME280;43675;50.030;21.952;2023-04-15T09:14:09;97867.50;;;17.56;48.81
57847;BME280;43675;50.030;21.952;2023-04-15T09:16:55;97871.49;;;17.46;48.59
57847;BME280;43675;50.030;21.952;2023-04-15T09:19:23;97873.59;;;17.40;48.71
57847;BME280;43675;50.030;21.952;2023-04-15T09:21:52;97870.13;;;17.37;48.61
57847;BME280;43675;50.030;21.952;2023-04-15T09:24:19;97869.59;;;17.34;48.52
57847;BME280;43675;50.030;21.952;2023-04-15T09:26:46;97870.73;;;17.35;48.37
57847;BME280;43675;50.030;21.952;2023-04-15T09:29:13;97873.89;;;17.45;48.59
57847;BME280;43675;50.030;21.952;2023-04-15T09:31:40;97873.90;;;17.61;48.41
57847;BME280;43675;50.030;21.952;2023-04-15T09:34:07;97869.63;;;17.78;47.92
57847;BME280;43675;50.030;21.952;2023-04-15T09:39:12;97871.70;;;18.04;47.26
57847;BME280;43675;50.030;21.952;2023-04-15T09:41:39;97879.00;;;18.11;46.65
57847;BME280;43675;50.030;21.952;2023-04-15T09:44:06;97874.73;;;18.18;46.08
57847;BME280;43675;50.030;21.952;2023-04-15T09:46:43;97871.73;;;18.28;45.96
57847;BME280;43675;50.030;21.952;2023-04-15T09:49:11;97872.51;;;18.40;45.73
57847;BME280;43675;50.030;21.952;2023-04-15T09:51:38;97872.25;;;18.47;45.09
57847;BME280;43675;50.030;21.952;2023-04-15T09:54:04;97872.55;;;18.48;44.73
57847;BME280;43675;50.030;21.952;2023-04-15T09:56:33;97871.70;;;18.40;44.70
57847;BME280;43675;50.030;21.952;2023-04-15T09:59:00;97871.46;;;18.29;44.56
57847;BME280;43675;50.030;21.952;2023-04-15T10:01:27;97875.70;;;18.21;44.29
57847;BME280;43675;50.030;21.952;2023-04-15T10:03:56;97874.05;;;18.18;44.35
57847;BME280;43675;50.030;21.952;2023-04-15T10:06:24;97872.34;;;18.20;44.08
57847;BME280;43675;50.030;21.952;2023-04-15T10:08:52;97872.45;;;18.28;44.08
57847;BME280;43675;50.030;21.952;2023-04-15T10:11:19;97877.27;;;18.44;43.92
57847;BME280;43675;50.030;21.952;2023-04-15T10:13:48;97870.25;;;18.61;43.30
57847;BME280;43675;50.030;21.952;2023-04-15T10:16:18;97863.08;;;18.84;42.87
57847;BME280;43675;50.030;21.952;2023-04-15T10:18:46;97865.32;;;19.03;42.52
57847;BME280;43675;50.030;21.952;2023-04-15T10:21:13;97864.83;;;19.13;42.51
57847;BME280;43675;50.030;21.952;2023-04-15T10:23:41;97860.54;;;19.27;42.56
57847;BME280;43675;50.030;21.952;2023-04-15T10:26:08;97857.14;;;19.45;42.21
57847;BME280;43675;50.030;21.952;2023-04-15T10:28:37;97852.70;;;19.64;42.16
57847;BME280;43675;50.030;21.952;2023-04-15T10:31:04;97855.45;;;19.82;41.73
57847;BME280;43675;50.030;21.952;2023-04-15T10:33:32;97853.09;;;19.94;41.62
57847;BME280;43675;50.030;21.952;2023-04-15T10:36:00;97850.48;;;19.86;40.95
57847;BME280;43675;50.030;21.952;2023-04-15T10:44:02;97835.00;;;18.70;41.84
57847;BME280;43675;50.030;21.952;2023-04-15T10:46:37;97839.88;;;18.24;42.35
57847;BME280;43675;50.030;21.952;2023-04-15T10:49:16;97844.29;;;17.94;42.65
57847;BME280;43675;50.030;21.952;2023-04-15T10:51:45;97847.70;;;17.68;42.99
57847;BME280;43675;50.030;21.952;2023-04-15T10:56:44;97844.20;;;17.24;43.77
57847;BME280;43675;50.030;21.952;2023-04-15T10:59:10;97837.78;;;17.15;43.53
57847;BME280;43675;50.030;21.952;2023-04-15T11:02:04;97838.89;;;17.08;43.46
57847;BME280;43675;50.030;21.952;2023-04-15T11:04:56;97838.52;;;17.08;43.87
57847;BME280;43675;50.030;21.952;2023-04-15T11:12:52;97842.39;;;17.30;43.78
57847;BME280;43675;50.030;21.952;2023-04-15T11:15:35;97840.60;;;17.27;43.60
57847;BME280;43675;50.030;21.952;2023-04-15T11:18:10;97841.70;;;17.26;43.43
57847;BME280;43675;50.030;21.952;2023-04-15T11:20:39;97844.44;;;17.31;43.42
57847;BME280;43675;50.030;21.952;2023-04-15T11:23:07;97843.95;;;17.44;43.54
57847;BME280;43675;50.030;21.952;2023-04-15T11:25:34;97840.70;;;17.62;43.21
57847;BME280;43675;50.030;21.952;2023-04-15T11:28:02;97843.58;;;17.69;42.90
57847;BME280;43675;50.030;21.952;2023-04-15T11:30:31;97846.23;;;17.69;42.83
57847;BME280;43675;50.030;21.952;2023-04-15T11:33:03;97850.71;;;17.74;42.85
57847;BME280;43675;50.030;21.952;2023-04-15T11:35:30;97849.44;;;17.95;42.71
57847;BME280;43675;50.030;21.952;2023-04-15T11:37:56;97852.89;;;18.07;42.70
57847;BME280;43675;50.030;21.952;2023-04-15T11:40:25;97855.35;;;18.20;42.71
57847;BME280;43675;50.030;21.952;2023-04-15T11:43:08;97855.00;;;18.36;42.17
57847;BME280;43675;50.030;21.952;2023-04-15T11:45:36;97851.91;;;18.58;42.21
57847;BME280;43675;50.030;21.952;2023-04-15T11:48:05;97847.02;;;18.74;41.68
57847;BME280;43675;50.030;21.952;2023-04-15T11:50:33;97851.18;;;18.88;41.53
57847;BME280;43675;50.030;21.952;2023-04-15T11:53:02;97852.22;;;18.93;41.24
57847;BME280;43675;50.030;21.952;2023-04-15T11:55:29;97859.64;;;18.96;41.23
57847;BME280;43675;50.030;21.952;2023-04-15T11:58:15;97863.39;;;19.02;41.17
57847;BME280;43675;50.030;21.952;2023-04-15T12:00:50;97868.43;;;19.08;41.44
57847;BME280;43675;50.030;21.952;2023-04-15T12:03:25;97866.20;;;19.02;40.96
57847;BME280;43675;50.030;21.952;2023-04-15T12:09:03;97861.05;;;18.78;41.03
57847;BME280;43675;50.030;21.952;2023-04-15T12:11:37;97862.40;;;18.70;41.10
57847;BME280;43675;50.030;21.952;2023-04-15T12:16:32;97875.17;;;18.47;40.96
57847;BME280;43675;50.030;21.952;2023-04-15T12:19:04;97883.55;;;18.25;41.11
57847;BME280;43675;50.030;21.952;2023-04-15T12:21:35;97896.67;;;17.94;41.53
57847;BME280;43675;50.030;21.952;2023-04-15T12:24:04;97908.23;;;17.59;42.35
57847;BME280;43675;50.030;21.952;2023-04-15T12:26:42;97914.59;;;17.23;43.31
57847;BME280;43675;50.030;21.952;2023-04-15T12:29:11;97914.91;;;17.03;44.22
57847;BME280;43675;50.030;21.952;2023-04-15T12:32:03;97913.31;;;16.87;45.03
57847;BME280;43675;50.030;21.952;2023-04-15T12:34:42;97920.48;;;16.75;45.95
57847;BME280;43675;50.030;21.952;2023-04-15T12:37:10;97919.17;;;16.72;46.23
57847;BME280;43675;50.030;21.952;2023-04-15T12:39:40;97912.30;;;16.68;46.37
57847;BME280;43675;50.030;21.952;2023-04-15T12:42:08;97910.24;;;16.63;46.47
57847;BME280;43675;50.030;21.952;2023-04-15T12:44:36;97907.75;;;16.66;47.06
57847;BME280;43675;50.030;21.952;2023-04-15T12:47:04;97911.11;;;16.68;46.89
57847;BME280;43675;50.030;21.952;2023-04-15T12:49:31;97911.60;;;16.70;46.73
57847;BME280;43675;50.030;21.952;2023-04-15T12:51:59;97914.63;;;16.79;46.73
57847;BME280;43675;50.030;21.952;2023-04-15T12:54:26;97918.23;;;16.97;46.82
57847;BME280;43675;50.030;21.952;2023-04-15T12:56:54;97911.89;;;17.21;46.27
57847;BME280;43675;50.030;21.952;2023-04-15T12:59:21;97919.17;;;17.51;45.88
57847;BME280;43675;50.030;21.952;2023-04-15T13:01:48;97920.19;;;17.85;45.33
57847;BME280;43675;50.030;21.952;2023-04-15T13:04:16;97920.91;;;18.19;44.45
57847;BME280;43675;50.030;21.952;2023-04-15T13:06:43;97925.05;;;18.41;43.57
57847;BME280;43675;50.030;21.952;2023-04-15T13:09:09;97922.97;;;18.54;43.26
57847;BME280;43675;50.030;21.952;2023-04-15T13:11:36;97924.05;;;18.62;43.21
57847;BME280;43675;50.030;21.952;2023-04-15T13:14:05;97926.91;;;18.66;43.07
57847;BME280;43675;50.030;21.952;2023-04-15T13:16:32;97942.80;;;18.71;42.98
57847;BME280;43675;50.030;21.952;2023-04-15T13:19:00;97944.52;;;18.64;43.08